Pagina principale
METAR-TAF:

METAR-TAF

Aeroporti :

Aeroporto di Ponta Delgada

Ponta Delgada, Azzorre, Portogallo

latitudine: 37-44N, longitudine: 025-42W, altezza: 71 m

Osservazione

Il bollettino è stato emesso 17 minuti fa, alle 11:00 UTC
Vento 7 kt da direzioni variabili
Temperature 26°C
Umidità 65%
Pressione 1029 hPa
Visibilità 10 km o più
Poco nuvoloso ad un'altezza di 2500 ft

METAR: LPPD 171100Z VRB07KT 9999 FEW025 26/19 Q1029

Ora: 11:17 (11:17 UTC)

Previsione

Il bollettino è stato emesso 6 ore e 17 minuti fa, alle 05:00 UTC
Previsione valida dal 17 alle 06 UTC al 18 alle 06 UTC
Vento 5 kt da direzioni variabili
Visibilità 10 km o più
Nubi sparse ad un'altezza di 1800 ft
Probabilità 30% :
Temporaneamente
dal 17 alle 12 UTC al 17 alle 20 UTC
Vento 7 kt da sud
Poco nuvoloso ad un'altezza di 2000 ft

TAF: LPPD 170500Z 1706/1806 VRB05KT 9999 SCT018 PROB30 TEMPO 1712/1720 18007KT FEW020

Osservazioni e previsioni meteorologiche di più di 4000 aeroporti (messaggi METAR e TAF).

Le stazioni disponibili sono rappresentate dai dischi gialli e rossi sulla carta.

Puntare il mouse per vedere il nome della stazione.

Clicca sopra per visualizzare le osservazioni e previsioni meteorologiche.

Per cambiare la mappa : fare clic sui pulsanti verdi con una croce nera per ingrandire, il pulsante verde con un trattino per diminuire, o sulla freccia verde per le mappe adiacenti.


METAR-TAF: